createdAt,value
2023-04-17T00:00:18.057Z,15.1
2023-04-17T00:02:18.515Z,15.6
2023-04-17T00:04:17.884Z,12.8
2023-04-17T00:06:18.022Z,11.6
2023-04-17T00:08:17.760Z,13.2
2023-04-17T00:10:17.852Z,15.8
2023-04-17T00:12:17.759Z,13
2023-04-17T00:14:17.780Z,12.4
2023-04-17T00:16:18.415Z,15.9
2023-04-17T00:18:17.838Z,11.9
2023-04-17T00:20:17.874Z,12.4
2023-04-17T00:22:17.864Z,12.7
2023-04-17T00:24:17.913Z,9.9
2023-04-17T00:26:18.320Z,15.5
2023-04-17T00:28:18.090Z,11.8
2023-04-17T00:30:18.161Z,8.2
2023-04-17T00:32:17.920Z,11.9
2023-04-17T00:34:17.994Z,16.1
2023-04-17T00:36:18.082Z,13.4
2023-04-17T00:38:18.131Z,14.3
2023-04-17T00:40:18.607Z,9.9
2023-04-17T00:42:17.948Z,10.5
2023-04-17T00:44:17.999Z,10.9
2023-04-17T00:46:18.403Z,11.6
2023-04-17T00:48:19.752Z,11.6
2023-04-17T00:50:18.217Z,11.9
2023-04-17T00:52:27.252Z,14.4
2023-04-17T00:54:18.438Z,13.4
2023-04-17T00:56:18.326Z,14.7
2023-04-17T00:58:18.895Z,17
2023-04-17T01:00:18.210Z,15.2
2023-04-17T01:02:19.139Z,13.3
2023-04-17T01:04:18.392Z,11
2023-04-17T01:06:19.507Z,9.8
2023-04-17T01:08:18.645Z,11.9
2023-04-17T01:10:18.441Z,11.5
2023-04-17T01:12:20.107Z,13.5
2023-04-17T01:14:18.818Z,13.2
2023-04-17T01:16:19.717Z,11.1
2023-04-17T01:18:19.168Z,12.2
2023-04-17T01:20:18.464Z,12.8
2023-04-17T01:22:18.901Z,14.9
2023-04-17T01:24:18.530Z,13.7
2023-04-17T01:26:20.323Z,12.7
2023-04-17T01:28:18.802Z,11.2
2023-04-17T01:30:28.112Z,13.2
2023-04-17T01:32:18.902Z,12.1
2023-04-17T01:34:18.656Z,11.3
2023-04-17T01:36:19.200Z,18.5
2023-04-17T01:38:19.177Z,14.5
2023-04-17T01:40:18.892Z,13.3
2023-04-17T01:42:19.113Z,15.2
2023-04-17T01:44:19.083Z,16.1
2023-04-17T01:46:18.920Z,15.9
2023-04-17T01:48:18.945Z,17
2023-04-17T01:50:19.449Z,14.4
2023-04-17T01:52:19.029Z,14.8
2023-04-17T01:54:19.065Z,12.8
2023-04-17T01:56:19.291Z,13.5
2023-04-17T01:58:19.701Z,14.1
2023-04-17T02:00:20.074Z,13.6
2023-04-17T02:02:19.273Z,14.8
2023-04-17T02:04:19.335Z,13.4
2023-04-17T02:06:19.388Z,13.2
2023-04-17T02:08:19.391Z,13.4
2023-04-17T02:10:19.360Z,20.8
2023-04-17T02:12:19.382Z,19.9
2023-04-17T02:14:20.654Z,11.9
2023-04-17T02:16:19.784Z,15.5
2023-04-17T02:18:19.670Z,18.5
2023-04-17T02:20:19.718Z,16.9
2023-04-17T02:22:19.525Z,16.1
2023-04-17T02:24:19.645Z,12
2023-04-17T02:26:19.774Z,18.4
2023-04-17T02:28:19.691Z,17.4
2023-04-17T02:30:19.934Z,16.1
2023-04-17T02:32:20.003Z,12.6
2023-04-17T02:34:20.203Z,15.3
2023-04-17T02:36:20.082Z,16.1
2023-04-17T02:38:19.979Z,19.4
2023-04-17T02:40:22.417Z,30.9
2023-04-17T02:42:20.999Z,207.2
2023-04-17T02:44:19.980Z,77.2
2023-04-17T02:46:20.167Z,31.5
2023-04-17T02:48:20.128Z,19.6
2023-04-17T02:50:35.146Z,13.5
2023-04-17T02:52:20.336Z,20.7
2023-04-17T02:54:20.327Z,14.9
2023-04-17T02:56:20.244Z,11.9
2023-04-17T02:58:20.893Z,16.6
2023-04-17T03:00:21.053Z,11.8
2023-04-17T03:02:20.681Z,12.4
2023-04-17T03:04:20.351Z,13.1
2023-04-17T03:06:20.444Z,13.9
2023-04-17T03:08:22.211Z,14.4
2023-04-17T03:10:21.126Z,13.4
2023-04-17T03:12:20.518Z,15.5
2023-04-17T03:14:20.488Z,17
2023-04-17T03:16:20.615Z,13.5
2023-04-17T03:18:20.653Z,12.8
2023-04-17T03:20:20.586Z,17.4
2023-04-17T03:22:21.514Z,18
2023-04-17T03:24:20.699Z,13.6
2023-04-17T03:26:20.753Z,14.2
2023-04-17T03:28:20.884Z,13.4
2023-04-17T03:30:22.906Z,17.4
2023-04-17T03:32:21.626Z,17.7
2023-04-17T03:34:22.410Z,14.3
2023-04-17T03:36:21.190Z,21.3
2023-04-17T03:38:21.272Z,14.6
2023-04-17T03:40:21.066Z,16.6
2023-04-17T03:42:21.571Z,25.8
2023-04-17T03:44:21.083Z,17.9
2023-04-17T03:46:21.774Z,16.9
2023-04-17T03:48:21.580Z,15.9
2023-04-17T03:50:27.935Z,14.8
2023-04-17T03:52:23.262Z,16.3
2023-04-17T03:54:21.763Z,11.2
2023-04-17T03:56:21.562Z,14.7
2023-04-17T03:58:22.391Z,16.8
2023-04-17T04:00:25.063Z,17.4
2023-04-17T04:02:22.132Z,15.6
2023-04-17T04:04:23.445Z,19.8
2023-04-17T04:06:22.141Z,18.9
2023-04-17T04:08:24.672Z,24
2023-04-17T04:10:22.302Z,23.7
2023-04-17T04:12:22.386Z,16.6
2023-04-17T04:14:22.314Z,27.1
2023-04-17T04:16:22.736Z,29.4
2023-04-17T04:18:22.685Z,26.2
2023-04-17T04:20:24.379Z,30.2
2023-04-17T04:22:25.020Z,19.9
2023-04-17T04:24:22.801Z,21.3
2023-04-17T04:26:25.258Z,19.2
2023-04-17T04:28:23.116Z,20.9
2023-04-17T04:30:24.416Z,21.8
2023-04-17T04:32:23.946Z,32.3
2023-04-17T04:34:24.226Z,26.7
2023-04-17T04:36:32.123Z,35.9
2023-04-17T04:38:23.784Z,128.5
2023-04-17T04:40:24.848Z,140.5
2023-04-17T04:42:28.990Z,68.5
2023-04-17T04:44:24.845Z,34.4
2023-04-17T04:46:24.881Z,38
2023-04-17T04:48:24.697Z,44.5
2023-04-17T04:50:24.749Z,28.1
2023-04-17T04:52:27.392Z,29.5
2023-04-17T04:54:28.148Z,31.8
2023-04-17T04:56:25.356Z,24.6
2023-04-17T04:58:25.715Z,47.8
2023-04-17T05:00:28.396Z,51.1
2023-04-17T05:02:26.215Z,34.7
2023-04-17T05:04:28.618Z,31.1
2023-04-17T05:06:29.541Z,30
2023-04-17T05:08:33.667Z,24.8
2023-04-17T05:10:30.450Z,35.1
2023-04-17T05:12:26.529Z,29.5
2023-04-17T05:14:26.541Z,56.9
2023-04-17T05:16:26.756Z,29.1
2023-04-17T05:18:28.722Z,32.8
2023-04-17T05:20:30.505Z,39.5
2023-04-17T05:22:41.893Z,37.2
2023-04-17T05:24:27.824Z,28.5
2023-04-17T05:26:27.374Z,38.4
2023-04-17T05:28:29.395Z,31
2023-04-17T05:30:35.587Z,37.8
2023-04-17T05:32:31.521Z,24
2023-04-17T05:34:28.006Z,45
2023-04-17T05:36:28.265Z,40.4
2023-04-17T05:38:28.622Z,34.9
2023-04-17T05:40:28.775Z,39.3
2023-04-17T05:42:29.150Z,46.3
2023-04-17T05:44:28.953Z,37.1
2023-04-17T05:46:28.950Z,22.9
2023-04-17T05:48:29.840Z,40.1
2023-04-17T05:50:29.559Z,36
2023-04-17T05:52:29.406Z,33.1
2023-04-17T05:54:29.489Z,35.2
2023-04-17T05:56:30.058Z,36.9
2023-04-17T05:58:31.005Z,26.7
2023-04-17T06:00:31.424Z,26.3
2023-04-17T06:02:30.341Z,83.4
2023-04-17T06:04:30.548Z,50.4
2023-04-17T06:06:31.056Z,84.3
2023-04-17T06:08:30.728Z,43.9
2023-04-17T06:10:31.028Z,40.2
2023-04-17T06:12:31.437Z,28.8
2023-04-17T06:14:31.917Z,26.5
2023-04-17T06:16:31.573Z,35.2
2023-04-17T06:18:31.754Z,52.8
2023-04-17T06:20:31.812Z,91.7
2023-04-17T06:22:32.593Z,43
2023-04-17T06:24:32.803Z,22.7
2023-04-17T06:26:32.459Z,29.3
2023-04-17T06:28:33.011Z,27.1
2023-04-17T06:30:32.904Z,31.3
2023-04-17T06:32:33.380Z,53.4
2023-04-17T06:34:33.461Z,28.9
2023-04-17T06:36:36.566Z,32.9
2023-04-17T06:38:33.819Z,32.2
2023-04-17T06:40:33.985Z,27.8
2023-04-17T06:42:35.016Z,61
2023-04-17T06:44:34.496Z,39.6
2023-04-17T06:46:37.620Z,29.6
2023-04-17T06:48:34.826Z,35.9
2023-04-17T06:50:35.330Z,41
2023-04-17T06:52:35.340Z,135.4
2023-04-17T06:54:35.559Z,54.8
2023-04-17T06:56:35.640Z,39
2023-04-17T06:58:35.858Z,36.8
2023-04-17T07:00:36.467Z,31.5
2023-04-17T07:02:36.440Z,25.4
2023-04-17T07:04:36.685Z,23.9
2023-04-17T07:06:37.419Z,33.4
2023-04-17T07:08:37.021Z,24.5
2023-04-17T07:10:37.177Z,28.3
2023-04-17T07:12:37.710Z,35.1
2023-04-17T07:14:37.720Z,157.8
2023-04-17T07:16:37.992Z,55.7
2023-04-17T07:18:38.173Z,41.1
2023-04-17T07:20:38.578Z,28.4
2023-04-17T07:22:38.899Z,30.2
2023-04-17T07:24:38.848Z,53.7
2023-04-17T07:26:39.179Z,28.7
2023-04-17T07:28:39.779Z,35.4
2023-04-17T07:30:40.377Z,22.2
2023-04-17T07:32:39.907Z,23.5
2023-04-17T07:34:40.173Z,29
2023-04-17T07:36:40.294Z,24
2023-04-17T07:38:41.112Z,22.3
2023-04-17T07:40:40.998Z,34.9
2023-04-17T07:42:41.166Z,26.9
2023-04-17T07:44:41.304Z,30.7
2023-04-17T07:46:41.735Z,37.7
2023-04-17T07:48:41.824Z,27.5
2023-04-17T07:50:42.248Z,45.9
2023-04-17T07:52:42.402Z,36.1
2023-04-17T07:54:42.854Z,43.8
2023-04-17T07:56:42.880Z,26.1
2023-04-17T07:58:43.654Z,27.2
2023-04-17T08:00:43.384Z,29.6
2023-04-17T08:02:43.842Z,27.2
2023-04-17T08:04:44.317Z,23.4
2023-04-17T08:06:44.045Z,62.5
2023-04-17T08:08:44.370Z,31.5
2023-04-17T08:10:44.705Z,40.9
2023-04-17T08:12:44.895Z,28.8
2023-04-17T08:14:45.127Z,33.6
2023-04-17T08:16:45.444Z,26
2023-04-17T08:18:45.730Z,28.7
2023-04-17T08:20:46.082Z,23.3
2023-04-17T08:22:46.485Z,27
2023-04-17T08:24:46.438Z,24.7
2023-04-17T08:26:47.293Z,45.5
2023-04-17T08:28:47.011Z,40.8
2023-04-17T08:30:47.311Z,56.2
2023-04-17T08:32:48.866Z,97.1
2023-04-17T08:34:47.753Z,34.1
2023-04-17T08:36:47.933Z,28.9
2023-04-17T08:38:48.101Z,25.9
2023-04-17T08:40:52.332Z,39.2
2023-04-17T08:42:50.874Z,24.2
2023-04-17T08:44:48.955Z,26.6
2023-04-17T08:46:50.107Z,22.4
2023-04-17T08:48:51.196Z,30.5
2023-04-17T08:50:51.331Z,36.1
2023-04-17T08:52:51.575Z,26.5
2023-04-17T08:54:51.494Z,29.6
2023-04-17T08:56:50.637Z,24
2023-04-17T08:58:50.848Z,27.6
2023-04-17T09:00:51.035Z,26
2023-04-17T09:02:53.359Z,34.4
2023-04-17T09:04:51.702Z,31.5
2023-04-17T09:06:51.983Z,31.9
2023-04-17T09:08:57.548Z,23.1
2023-04-17T09:10:54.364Z,32.3
2023-04-17T09:12:59.490Z,30
2023-04-17T09:14:53.107Z,28.3
2023-04-17T09:16:53.414Z,24.2
2023-04-17T09:19:04.787Z,28
2023-04-17T09:20:54.257Z,26.1
2023-04-17T09:23:00.680Z,43
2023-04-17T09:24:55.712Z,39.6
2023-04-17T09:26:54.658Z,31.6
2023-04-17T09:29:04.334Z,23.6
2023-04-17T09:30:55.331Z,21.6
2023-04-17T09:33:04.710Z,18
2023-04-17T09:34:58.515Z,21.8
2023-04-17T09:36:56.108Z,24.9
2023-04-17T09:38:56.634Z,29
2023-04-17T09:40:56.770Z,18.3
2023-04-17T09:42:58.487Z,31
2023-04-17T09:45:12.446Z,36.3
2023-04-17T09:46:59.859Z,32.8
2023-04-17T09:49:01.042Z,27.4
2023-04-17T09:50:58.443Z,26.5
2023-04-17T09:52:58.965Z,21.8
2023-04-17T09:55:00.472Z,37.1
2023-04-17T09:57:00.248Z,25.8
2023-04-17T09:59:02.109Z,20.7
2023-04-17T10:01:00.530Z,23.1
2023-04-17T10:03:02.579Z,24
2023-04-17T10:05:01.916Z,28.9
2023-04-17T10:07:01.047Z,58.9
2023-04-17T10:09:01.569Z,27.5
2023-04-17T10:11:05.475Z,28.5
2023-04-17T10:13:04.573Z,21.6
2023-04-17T10:15:03.242Z,45.1
2023-04-17T10:17:22.219Z,22.1
2023-04-17T10:19:26.736Z,34.1
2023-04-17T10:21:19.708Z,18.4
2023-04-17T10:23:26.902Z,31.3
2023-04-17T10:25:21.296Z,34
2023-04-17T10:27:37.741Z,35.2
2023-04-17T10:29:04.116Z,30.5
2023-04-17T10:31:04.399Z,37.3
2023-04-17T10:33:20.605Z,16.8
2023-04-17T10:35:39.203Z,21.2
2023-04-17T10:37:05.274Z,38.8
2023-04-17T10:39:13.874Z,24
2023-04-17T10:41:08.020Z,23
2023-04-17T10:43:12.274Z,21.9
2023-04-17T10:45:18.384Z,22.1
2023-04-17T10:47:07.065Z,20.3
2023-04-17T10:49:07.056Z,20.1
2023-04-17T10:51:39.592Z,17.5
2023-04-17T10:53:07.661Z,78.2
2023-04-17T10:55:09.990Z,25.6
2023-04-17T10:57:08.371Z,48.3
2023-04-17T10:59:09.968Z,27.3
2023-04-17T11:01:11.152Z,24.7
2023-04-17T11:03:14.470Z,23.1
2023-04-17T11:05:10.772Z,24.7
2023-04-17T11:07:12.055Z,26.7
2023-04-17T11:09:10.624Z,50
2023-04-17T11:11:10.647Z,21.2
2023-04-17T11:13:10.643Z,19.5
2023-04-17T11:15:11.276Z,19.7
2023-04-17T11:17:11.524Z,27.2
2023-04-17T11:19:16.258Z,43.6
2023-04-17T11:21:13.197Z,26.5
2023-04-17T11:23:12.211Z,26.9
2023-04-17T11:25:28.066Z,16.6
2023-04-17T11:27:13.017Z,20.4
2023-04-17T11:29:14.721Z,19.5
2023-04-17T11:31:13.464Z,18.1
2023-04-17T11:33:13.673Z,22.9
2023-04-17T11:35:14.124Z,20.7
2023-04-17T11:37:14.822Z,19.5
2023-04-17T11:39:15.120Z,21.1
2023-04-17T11:41:15.113Z,26.2
2023-04-17T11:43:16.018Z,28.1
2023-04-17T11:45:18.822Z,22.7
2023-04-17T11:47:18.855Z,16.5
2023-04-17T11:49:16.609Z,19.2
2023-04-17T11:51:17.889Z,21.6
2023-04-17T11:53:17.270Z,26.1
2023-04-17T11:55:17.530Z,84.2
2023-04-17T11:57:17.472Z,27.1
2023-04-17T11:59:29.638Z,47
2023-04-17T12:01:20.133Z,25.9
2023-04-17T12:03:34.426Z,29.3
2023-04-17T12:05:19.395Z,23.6
2023-04-17T12:07:22.308Z,21.4
2023-04-17T12:09:20.118Z,16.9
2023-04-17T12:11:29.315Z,16.9
2023-04-17T12:13:20.081Z,18.7
2023-04-17T12:15:20.334Z,26.4
2023-04-17T12:17:20.723Z,25
2023-04-17T12:19:21.039Z,24.7
2023-04-17T12:21:22.480Z,18.4
2023-04-17T12:23:21.629Z,28.8
2023-04-17T12:25:21.955Z,23.8
2023-04-17T12:27:22.273Z,23.1
2023-04-17T12:29:32.710Z,24.1
2023-04-17T12:31:22.860Z,20
2023-04-17T12:33:23.245Z,25.2
2023-04-17T12:35:23.548Z,20.6
2023-04-17T12:37:23.827Z,13.6
2023-04-17T12:39:24.167Z,18.7
2023-04-17T12:41:24.665Z,29.4
2023-04-17T12:43:24.686Z,23.5
2023-04-17T12:45:25.005Z,17.1
2023-04-17T12:47:25.461Z,22.3
2023-04-17T12:49:25.539Z,24.4
2023-04-17T12:51:26.274Z,32.7
2023-04-17T12:53:26.155Z,34.6
2023-04-17T12:55:26.525Z,27.3
2023-04-17T12:57:27.508Z,13.3
2023-04-17T12:59:27.098Z,23.8
2023-04-17T13:01:27.496Z,42.4
2023-04-17T13:03:27.922Z,15.9
2023-04-17T13:05:28.384Z,15.8
2023-04-17T13:07:28.641Z,18.1
2023-04-17T13:09:28.703Z,20.8
2023-04-17T13:11:28.895Z,36.3
2023-04-17T13:13:29.390Z,21.1
2023-04-17T13:15:30.774Z,23.2
2023-04-17T13:17:30.634Z,44.4
2023-04-17T13:19:31.600Z,59.4
2023-04-17T13:21:30.465Z,17.5
2023-04-17T13:23:30.827Z,23
2023-04-17T13:25:32.072Z,28.3
2023-04-17T13:27:31.865Z,26.5
2023-04-17T13:29:31.502Z,23.5
2023-04-17T13:31:32.023Z,27.9
2023-04-17T13:33:32.104Z,30.3
2023-04-17T13:35:32.403Z,20.8
2023-04-17T13:37:32.724Z,19.3
2023-04-17T13:39:32.959Z,20.7
2023-04-17T13:41:33.244Z,17.4
2023-04-17T13:43:33.395Z,24.6
2023-04-17T13:45:34.144Z,25.5
2023-04-17T13:47:33.979Z,25.4
2023-04-17T13:49:34.251Z,22.6
2023-04-17T13:51:34.664Z,21.2
2023-04-17T13:53:34.760Z,49.3
2023-04-17T13:55:35.191Z,33.1
2023-04-17T13:57:35.702Z,27.2
2023-04-17T13:59:35.573Z,25.4
2023-04-17T14:01:36.188Z,25
2023-04-17T14:03:38.291Z,16.7
2023-04-17T14:05:36.387Z,23.8
2023-04-17T14:07:37.680Z,27
2023-04-17T14:09:37.406Z,40.4
2023-04-17T14:11:37.754Z,38.3
2023-04-17T14:13:37.552Z,26.5
2023-04-17T14:15:37.905Z,31.7
2023-04-17T14:17:38.388Z,47.3
2023-04-17T14:19:38.268Z,25.1
2023-04-17T14:21:38.630Z,20
2023-04-17T14:23:38.738Z,36.5
2023-04-17T14:25:39.089Z,22.7
2023-04-17T14:27:39.518Z,19.9
2023-04-17T14:29:39.531Z,13.5
2023-04-17T14:31:39.890Z,17
2023-04-17T14:33:40.146Z,24.5
2023-04-17T14:35:40.498Z,22.9
2023-04-17T14:37:40.596Z,17.1
2023-04-17T14:39:40.960Z,21.5
2023-04-17T14:41:41.409Z,14.7
2023-04-17T14:43:41.431Z,21.5
2023-04-17T14:45:41.943Z,9.7
2023-04-17T14:47:41.973Z,14
2023-04-17T14:49:42.284Z,15.4
2023-04-17T14:51:42.507Z,17.6
2023-04-17T14:53:42.694Z,22.6
2023-04-17T14:55:43.005Z,23.8
2023-04-17T14:57:43.447Z,18.2
2023-04-17T14:59:43.605Z,20
2023-04-17T15:01:44.066Z,27.1
2023-04-17T15:03:46.778Z,24.6
2023-04-17T15:05:44.273Z,30.5
2023-04-17T15:07:44.985Z,31.9
2023-04-17T15:09:44.786Z,33.8
2023-04-17T15:11:45.315Z,44.3
2023-04-17T15:13:45.242Z,45.3
2023-04-17T15:15:45.638Z,42.4
2023-04-17T15:17:45.931Z,41.4
2023-04-17T15:19:46.077Z,42.1
2023-04-17T15:21:46.491Z,30.6
2023-04-17T15:23:46.644Z,37.8
2023-04-17T15:25:46.848Z,41
2023-04-17T15:27:47.158Z,35.4
2023-04-17T15:29:47.417Z,46.6
2023-04-17T15:31:47.657Z,48.4
2023-04-17T15:33:47.907Z,30.4
2023-04-17T15:35:53.429Z,27.9
2023-04-17T15:37:48.357Z,41.1
2023-04-17T15:39:48.678Z,33.6
2023-04-17T15:41:48.924Z,30.2
2023-04-17T15:43:49.173Z,36.4
2023-04-17T15:45:50.341Z,36.1
2023-04-17T15:47:49.699Z,57.7
2023-04-17T15:49:49.721Z,47.2
2023-04-17T15:51:50.307Z,36.1
2023-04-17T15:53:50.285Z,44.2
2023-04-17T15:55:51.960Z,40
2023-04-17T15:57:50.862Z,49.4
2023-04-17T15:59:51.303Z,41.3
2023-04-17T16:01:51.465Z,49.2
2023-04-17T16:03:52.076Z,45.1
2023-04-17T16:05:53.905Z,42.5
2023-04-17T16:07:51.965Z,40.9
2023-04-17T16:09:52.236Z,44.2
2023-04-17T16:11:52.546Z,50.8
2023-04-17T16:13:52.643Z,50.6
2023-04-17T16:15:53.038Z,43.3
2023-04-17T16:17:53.378Z,51.9
2023-04-17T16:19:53.321Z,45.1
2023-04-17T16:21:53.873Z,52.7
2023-04-17T16:23:54.006Z,58.5
2023-04-17T16:25:54.122Z,44.5
2023-04-17T16:27:54.514Z,47.7
2023-04-17T16:29:54.619Z,49.1
2023-04-17T16:31:55.091Z,59.9
2023-04-17T16:33:55.105Z,55.5
2023-04-17T16:35:56.125Z,61.5
2023-04-17T16:37:55.671Z,70.2
2023-04-17T16:39:55.778Z,80.9
2023-04-17T16:41:55.958Z,79.6
2023-04-17T16:43:56.247Z,78.6
2023-04-17T16:45:56.964Z,70.1
2023-04-17T16:47:56.732Z,77.2
2023-04-17T16:49:56.921Z,78.1
2023-04-17T16:51:57.169Z,58.6
2023-04-17T16:53:57.418Z,66.1
2023-04-17T16:55:57.611Z,57.4
2023-04-17T16:57:58.009Z,66.2
2023-04-17T16:59:58.157Z,77.6
2023-04-17T17:02:00.114Z,60.9
2023-04-17T17:03:58.927Z,52.3
2023-04-17T17:05:59.047Z,62
2023-04-17T17:07:59.132Z,76.2
2023-04-17T17:09:59.320Z,102.2
2023-04-17T17:11:59.925Z,131.8
2023-04-17T17:13:59.753Z,139.2
2023-04-17T17:15:59.993Z,113.6
2023-04-17T17:18:00.337Z,81.4
2023-04-17T17:20:00.375Z,90.9
2023-04-17T17:22:00.646Z,104.4
2023-04-17T17:24:00.968Z,107.7
2023-04-17T17:26:01.058Z,87.4
2023-04-17T17:28:01.493Z,109
2023-04-17T17:30:02.249Z,103
2023-04-17T17:32:01.876Z,101.1
2023-04-17T17:34:12.007Z,116
2023-04-17T17:36:02.907Z,117.9
2023-04-17T17:38:02.504Z,103.8
2023-04-17T17:40:03.018Z,95.3
2023-04-17T17:42:03.570Z,108.1
2023-04-17T17:44:03.071Z,102.1
2023-04-17T17:46:03.345Z,109.1
2023-04-17T17:48:04.116Z,138.2
2023-04-17T17:50:04.467Z,126.6
2023-04-17T17:52:04.400Z,106.4
2023-04-17T17:54:04.228Z,105
2023-04-17T17:56:04.991Z,130.1
2023-04-17T17:58:06.488Z,121.7
2023-04-17T18:00:05.877Z,127.9
2023-04-17T18:02:05.197Z,143
2023-04-17T18:04:05.645Z,126.6
2023-04-17T18:06:05.562Z,124.8
2023-04-17T18:08:05.754Z,117.4
2023-04-17T18:10:07.029Z,108.8
2023-04-17T18:12:06.503Z,117.2
2023-04-17T18:14:06.360Z,99.8
2023-04-17T18:16:07.706Z,109
2023-04-17T18:18:06.880Z,119
2023-04-17T18:20:08.359Z,116.9
2023-04-17T18:22:08.262Z,98.8
2023-04-17T18:24:07.872Z,113.9
2023-04-17T18:26:07.659Z,102.9
2023-04-17T18:28:07.906Z,102.8
2023-04-17T18:30:09.410Z,106.5
2023-04-17T18:32:08.435Z,105.4
2023-04-17T18:34:08.506Z,101.1
2023-04-17T18:36:08.778Z,101.1
2023-04-17T18:38:09.135Z,74.1
2023-04-17T18:40:09.640Z,62
2023-04-17T18:42:09.402Z,74.7
2023-04-17T18:44:09.659Z,92.3
2023-04-17T18:46:09.844Z,84.9
2023-04-17T18:48:10.017Z,104.3
2023-04-17T18:50:10.945Z,106.7
2023-04-17T18:52:10.486Z,76.4
2023-04-17T18:54:10.969Z,81.6
2023-04-17T18:56:12.189Z,85.4
2023-04-17T18:58:11.159Z,76.6
2023-04-17T19:00:12.106Z,66.4
2023-04-17T19:02:11.604Z,87.1
2023-04-17T19:04:12.092Z,81.5
2023-04-17T19:06:12.080Z,61.9
2023-04-17T19:08:12.270Z,68.8
2023-04-17T19:10:12.556Z,70.3
2023-04-17T19:12:12.989Z,79.4
2023-04-17T19:14:13.110Z,77.4
2023-04-17T19:16:13.071Z,69.1
2023-04-17T19:18:13.256Z,59.6
2023-04-17T19:20:13.615Z,79.3
2023-04-17T19:22:15.409Z,64
2023-04-17T19:24:13.960Z,61.9
2023-04-17T19:26:14.311Z,53.1
2023-04-17T19:28:14.298Z,51.2
2023-04-17T19:30:14.669Z,54.6
2023-04-17T19:32:14.742Z,60.1
2023-04-17T19:34:14.998Z,66.8
2023-04-17T19:36:15.280Z,50.7
2023-04-17T19:38:17.118Z,50
2023-04-17T19:40:24.112Z,45.5
2023-04-17T19:42:15.804Z,33.7
2023-04-17T19:44:15.996Z,38.9
2023-04-17T19:46:18.013Z,41.9
2023-04-17T19:48:16.545Z,33.3
2023-04-17T19:50:16.769Z,37.5
2023-04-17T19:52:16.984Z,36
2023-04-17T19:54:17.203Z,47.1
2023-04-17T19:56:17.382Z,35.8
2023-04-17T19:58:17.518Z,39.3
2023-04-17T20:00:18.197Z,47.3
2023-04-17T20:02:18.445Z,36.8
2023-04-17T20:04:18.352Z,41.9
2023-04-17T20:06:18.866Z,42.6
2023-04-17T20:08:18.643Z,43.5
2023-04-17T20:10:18.867Z,54.1
2023-04-17T20:12:19.034Z,44.9
2023-04-17T20:14:19.183Z,42.3
2023-04-17T20:16:19.669Z,43.1
2023-04-17T20:18:19.622Z,49.2
2023-04-17T20:20:19.895Z,55.2
2023-04-17T20:22:19.985Z,43.8
2023-04-17T20:24:20.229Z,33.8
2023-04-17T20:26:20.404Z,32
2023-04-17T20:28:20.716Z,25.3
2023-04-17T20:30:21.505Z,29.8
2023-04-17T20:32:22.110Z,20.8
2023-04-17T20:34:21.303Z,19.6
2023-04-17T20:36:21.347Z,21.5
2023-04-17T20:38:21.554Z,15.4
2023-04-17T20:40:22.078Z,15.1
2023-04-17T20:42:21.966Z,18
2023-04-17T20:44:22.129Z,14.5
2023-04-17T20:46:22.300Z,17.6
2023-04-17T20:48:22.554Z,18.9
2023-04-17T20:50:22.994Z,14.1
2023-04-17T20:52:23.110Z,15.8
2023-04-17T20:54:23.234Z,18.2
2023-04-17T20:56:23.137Z,14.1
2023-04-17T20:58:23.383Z,20.9
2023-04-17T21:00:23.666Z,14.8
2023-04-17T21:02:23.982Z,14.9
2023-04-17T21:04:23.917Z,15.5
2023-04-17T21:06:24.066Z,17.2
2023-04-17T21:08:24.682Z,14.3
2023-04-17T21:10:24.505Z,15.4
2023-04-17T21:12:24.775Z,17.3
2023-04-17T21:14:24.800Z,16.6
2023-04-17T21:16:24.997Z,16.6
2023-04-17T21:18:25.140Z,12.9
2023-04-17T21:20:25.455Z,17.2
2023-04-17T21:22:25.426Z,13.6
2023-04-17T21:24:25.548Z,14.7
2023-04-17T21:26:25.773Z,14.4
2023-04-17T21:28:25.836Z,12
2023-04-17T21:30:27.519Z,18.6
2023-04-17T21:32:26.313Z,12.5
2023-04-17T21:34:26.477Z,16.6
2023-04-17T21:36:26.426Z,13.9
2023-04-17T21:38:26.647Z,14.6
2023-04-17T21:40:31.002Z,16.1
2023-04-17T21:42:26.866Z,16.8
2023-04-17T21:44:27.635Z,13.9
2023-04-17T21:46:27.309Z,18.2
2023-04-17T21:48:27.465Z,17.6
2023-04-17T21:50:27.660Z,17.6
2023-04-17T21:52:27.847Z,14.6
2023-04-17T21:54:27.868Z,15
2023-04-17T21:56:28.050Z,17.4
2023-04-17T21:58:28.243Z,13.5
2023-04-17T22:00:29.091Z,20.2
2023-04-17T22:02:28.627Z,14.4
2023-04-17T22:04:29.023Z,14.1
2023-04-17T22:06:28.940Z,15.4
2023-04-17T22:08:29.071Z,14.6
2023-04-17T22:10:29.421Z,13.4
2023-04-17T22:12:29.837Z,15.7
2023-04-17T22:14:29.522Z,21.3
2023-04-17T22:16:29.740Z,16.7
2023-04-17T22:18:29.826Z,17.3
2023-04-17T22:20:30.043Z,13.1
2023-04-17T22:22:30.079Z,15.8
2023-04-17T22:24:30.273Z,28
2023-04-17T22:26:30.717Z,16.9
2023-04-17T22:28:30.840Z,15.1
2023-04-17T22:30:30.893Z,15.8
2023-04-17T22:32:32.883Z,13.8
2023-04-17T22:34:31.022Z,15.1
2023-04-17T22:36:31.265Z,13.1
2023-04-17T22:38:31.381Z,14.9
2023-04-17T22:40:31.474Z,16.1
2023-04-17T22:42:32.253Z,19.1
2023-04-17T22:44:31.800Z,17.1
2023-04-17T22:46:31.970Z,18.5
2023-04-17T22:48:32.052Z,16.5
2023-04-17T22:50:32.399Z,19.9
2023-04-17T22:52:32.289Z,17.1
2023-04-17T22:54:32.761Z,15.6
2023-04-17T22:56:33.626Z,14.5
2023-04-17T22:58:33.358Z,14.2
2023-04-17T23:00:33.193Z,15.3
2023-04-17T23:02:33.023Z,17.7
2023-04-17T23:04:33.217Z,16.6
2023-04-17T23:06:33.209Z,16.9
2023-04-17T23:08:33.359Z,18.1
2023-04-17T23:10:33.597Z,14.8
2023-04-17T23:12:34.179Z,18
2023-04-17T23:14:33.705Z,14.9
2023-04-17T23:16:33.895Z,15.8
2023-04-17T23:18:34.024Z,14.8
2023-04-17T23:20:34.171Z,18.7
2023-04-17T23:22:34.583Z,18
2023-04-17T23:24:34.841Z,22.9
2023-04-17T23:26:34.461Z,20.2
2023-04-17T23:28:34.578Z,32.9
2023-04-17T23:30:34.960Z,36.6
2023-04-17T23:32:34.881Z,33.2
2023-04-17T23:34:35.276Z,37.6
2023-04-17T23:36:35.135Z,35.1
2023-04-17T23:38:35.128Z,31.8
2023-04-17T23:40:35.248Z,26.3
2023-04-17T23:42:35.355Z,27
2023-04-17T23:44:35.430Z,18.9
2023-04-17T23:46:35.644Z,22
2023-04-17T23:48:35.734Z,18.6
2023-04-17T23:50:35.792Z,21.2
2023-04-17T23:52:35.955Z,25.9
2023-04-17T23:54:36.044Z,23.8
2023-04-17T23:56:36.153Z,33.8
2023-04-17T23:58:36.262Z,20.8
